Discovery Coast — WDG2458 — position and weather

sailwx.info

Track history (hours):
 
Tides and Currents Weather Stations Pressure Air Temp Water Temp Dewpoint Dewpoint Depression Visibility Wind Speed Wind Dir Waves Ship Positions

Discovery Coast

Owner: Dann Marine Towing, LC, Chesapeake City, MD. More information available from US FCC via Universal Licensing System.

Last reported at 2018-Feb-22 13:00 UTC. Time now 2018-Feb-22 13:10 UTC.
Position N 38°53' W 076°25'.

Length 31 m; draft 4.3 m.

Type: Tug. MMSI: 367515850.

Date/timePositionNaut miles runAvg speedWind from/ knotsBaromVisibWave heightAir tempDewpointWater temp
2018-Feb-22 13:00N 38°53' W 076°25'5 9.7
2018-Feb-22 12:30N 38°48' W 076°27'88 9.5
2018-Feb-22 03:14N 37°21' W 076°10'3 9.0
2018-Feb-22 02:57N 37°18' W 076°10'5 9.1
2018-Feb-22 02:26N 37°14' W 076°10'5 9.0
2018-Feb-22 01:56N 37°09' W 076°10'4 8.7
2018-Feb-22 01:26N 37°05' W 076°11'4 8.7
2018-Feb-22 00:56N 37°01' W 076°11'611.4
2018-Feb-22 00:26N 36°60' W 076°18'4 8.9
2018-Feb-21 23:58N 36°56' W 076°20'0 0.0
2018-Feb-21 23:26N 36°56' W 076°20'0 0.0
2018-Feb-21 23:00N 36°56' W 076°20'0 0.0
2018-Feb-21 22:30N 36°56' W 076°20'0 0.0
2018-Feb-21 22:00N 36°56' W 076°20'0 0.6
2018-Feb-21 21:29N 36°56' W 076°20'0 0.3
2018-Feb-21 20:54N 36°56' W 076°20'0 0.0
2018-Feb-21 20:29N 36°56' W 076°20'0 0.0
2018-Feb-21 19:58N 36°56' W 076°20'0 0.0
2018-Feb-21 19:28N 36°56' W 076°20'0 0.0
2018-Feb-21 19:00N 36°56' W 076°20'3 6.2
2018-Feb-21 18:30N 36°53' W 076°20'3 6.8
2018-Feb-21 18:00N 36°50' W 076°17'0 0.4
2018-Feb-21 17:30N 36°50' W 076°17'0 0.0
2018-Feb-21 17:00N 36°50' W 076°17'0 0.0
2018-Feb-21 16:30N 36°50' W 076°17'0 0.0
2018-Feb-21 16:00N 36°50' W 076°17'0 0.0
2018-Feb-21 15:30N 36°50' W 076°17'0 0.0
2018-Feb-21 15:00N 36°50' W 076°17'0 0.0
2018-Feb-21 14:30N 36°50' W 076°17'0 0.0
2018-Feb-21 14:00N 36°50' W 076°17'0 0.0
2018-Feb-21 13:30N 36°50' W 076°17'0 0.0
2018-Feb-21 13:00N 36°50' W 076°17'0 0.0
2018-Feb-21 12:30N 36°50' W 076°17'0 0.0
2018-Feb-21 12:00N 36°50' W 076°17'0 0.0
2018-Feb-21 11:30N 36°50' W 076°17'0 0.0
2018-Feb-21 10:53N 36°50' W 076°17'0 0.0
2018-Feb-21 10:27N 36°50' W 076°17'0 0.0
2018-Feb-21 10:00N 36°50' W 076°17'0 0.0
2018-Feb-21 09:19N 36°50' W 076°17'0 0.0
2018-Feb-21 08:57N 36°50' W 076°17'0 0.0
2018-Feb-21 08:30N 36°50' W 076°17'0 0.0
2018-Feb-21 08:00N 36°50' W 076°17'0 0.0
2018-Feb-21 07:30N 36°50' W 076°17'0 0.0
2018-Feb-21 07:00N 36°50' W 076°17'0 0.0
2018-Feb-21 06:30N 36°50' W 076°17'0 0.0
2018-Feb-21 06:00N 36°50' W 076°17'0 0.0
2018-Feb-21 05:30N 36°50' W 076°17'0 0.0
2018-Feb-21 05:00N 36°50' W 076°17'0 0.0
2018-Feb-21 04:30N 36°50' W 076°17'0 0.0
2018-Feb-21 04:00N 36°50' W 076°17'0 0.0
2018-Feb-21 03:30N 36°50' W 076°17'1 1.1
2018-Feb-21 03:00N 36°50' W 076°16'0 0.0
2018-Feb-21 02:30N 36°50' W 076°16'2 4.9
2018-Feb-21 02:00N 36°51' W 076°19'6 9.8
2018-Feb-21 01:26N 36°57' W 076°20'4 8.8
2018-Feb-21 00:56N 37°00' W 076°17'5 8.6
2018-Feb-21 00:24N 37°01' W 076°11'410.3
2018-Feb-21 00:00N 37°05' W 076°10'95 9.9
2018-Feb-20 14:26N 38°39' W 076°28'4 9.5
2018-Feb-20 14:00N 38°43' W 076°28'5 9.4
2018-Feb-20 13:30N 38°47' W 076°27'5 9.3
2018-Feb-20 13:00N 38°52' W 076°25'5 9.2
2018-Feb-20 12:30N 38°56' W 076°24'4 8.2
2018-Feb-20 12:00N 39°00' W 076°23'4 8.1
2018-Feb-20 11:30N 39°04' W 076°21'4 8.6
2018-Feb-20 10:59N 39°08' W 076°19'4 8.4
2018-Feb-20 10:30N 39°12' W 076°16'4 8.2
2018-Feb-20 10:01N 39°15' W 076°14'3 6.4
2018-Feb-20 09:31N 39°18' W 076°13'3 5.9
2018-Feb-20 09:01N 39°21' W 076°11'3 6.3
2018-Feb-20 08:31N 39°22' W 076°07'3 6.4
2018-Feb-20 08:00N 39°24' W 076°04'3 6.5
2018-Feb-20 07:30N 39°26' W 076°01'1 2.9
2018-Feb-20 07:01N 39°27' W 075°59'0 0.0
2018-Feb-20 06:30N 39°27' W 075°59'0 0.0
2018-Feb-20 06:01N 39°27' W 075°59'0 0.0
2018-Feb-20 05:30N 39°27' W 075°59'0 0.0
2018-Feb-20 05:00N 39°27' W 075°59'1 1.9
2018-Feb-20 04:30N 39°26' W 076°00'5 9.8
2018-Feb-20 04:00N 39°23' W 076°05'510.2
2018-Feb-20 03:30N 39°21' W 076°11'5 9.8
2018-Feb-20 03:00N 39°16' W 076°14'5 9.5
2018-Feb-20 02:30N 39°12' W 076°16'5 9.8
2018-Feb-20 01:59N 39°08' W 076°20'5 9.7
2018-Feb-20 01:30N 39°03' W 076°21'510.2
2018-Feb-20 01:00N 38°58' W 076°23'5 9.5
2018-Feb-20 00:30N 38°54' W 076°25'5 9.9
2018-Feb-20 00:00N 38°49' W 076°27'5 9.8
2018-Feb-19 23:30N 38°44' W 076°28'89 9.6
2018-Feb-19 14:16N 37°17' W 076°10'2 9.2
2018-Feb-19 14:00N 37°14' W 076°10'5 9.0
2018-Feb-19 13:30N 37°10' W 076°10'5 8.9
2018-Feb-19 12:58N 37°05' W 076°10'5 8.3
2018-Feb-19 12:21N 37°00' W 076°12'4 9.6
2018-Feb-19 11:56N 37°00' W 076°17'4 9.3
2018-Feb-19 11:31N 36°57' W 076°20'5 9.0
2018-Feb-19 11:00N 36°53' W 076°20'4 7.4
2018-Feb-19 10:30N 36°50' W 076°16'0 0.3
2018-Feb-19 10:00N 36°50' W 076°16'0 0.1
2018-Feb-19 09:30N 36°50' W 076°16'1 2.6
2018-Feb-19 09:00N 36°51' W 076°18'2 3.9
2018-Feb-19 08:30N 36°52' W 076°19'3 6.1
2018-Feb-19 08:00N 36°55' W 076°20'4 6.5
2018-Feb-19 07:25N 36°59' W 076°20'3 5.7
2018-Feb-19 06:57N 37°00' W 076°17'3 6.4
2018-Feb-19 06:26N 37°00' W 076°13'3 6.2
2018-Feb-19 05:57N 37°03' W 076°10'5 7.6
2018-Feb-19 05:21N 37°07' W 076°10'6 7.4
2018-Feb-19 04:34N 37°13' W 076°10'88 9.1
2018-Feb-18 18:52N 38°40' W 076°28'410.5
2018-Feb-18 18:30N 38°44' W 076°28'510.6
2018-Feb-18 18:00N 38°49' W 076°26'510.9
2018-Feb-18 17:30N 38°54' W 076°25'611.0
2018-Feb-18 17:00N 38°59' W 076°23'611.0
2018-Feb-18 16:30N 39°04' W 076°20'510.2
2018-Feb-18 16:00N 39°09' W 076°19'510.3
2018-Feb-18 15:28N 39°14' W 076°15'5 9.7
2018-Feb-18 15:00N 39°18' W 076°13'5 9.2
2018-Feb-18 14:30N 39°21' W 076°09'5 9.4
2018-Feb-18 14:01N 39°24' W 076°04'5 9.0
2018-Feb-18 13:30N 39°27' W 075°60'0 0.9
2018-Feb-18 13:00N 39°27' W 075°59'0 0.0
2018-Feb-18 12:30N 39°27' W 075°59'0 0.4
2018-Feb-18 12:00N 39°27' W 075°59'0 0.0
2018-Feb-18 11:31N 39°27' W 075°59'0 0.0
2018-Feb-18 11:00N 39°27' W 075°59'0 0.0
2018-Feb-18 10:30N 39°27' W 075°59'0 0.0
2018-Feb-18 10:00N 39°27' W 075°59'0 0.0
2018-Feb-18 09:30N 39°27' W 075°59'0 0.0
2018-Feb-18 09:00N 39°27' W 075°59'0 0.0
2018-Feb-18 08:30N 39°27' W 075°59'0 0.0
2018-Feb-18 08:00N 39°27' W 075°59'0 0.0
2018-Feb-18 07:30N 39°27' W 075°59'0 0.0
2018-Feb-18 07:00N 39°27' W 075°59'0 0.0
2018-Feb-18 06:31N 39°27' W 075°59'0 0.0
2018-Feb-18 06:00N 39°27' W 075°59'0 0.0
2018-Feb-18 05:30N 39°27' W 075°59'0 0.0
2018-Feb-18 05:01N 39°27' W 075°59'0 0.0
2018-Feb-18 04:30N 39°27' W 075°59'0 0.0
2018-Feb-18 04:00N 39°27' W 075°59'0 0.0
2018-Feb-18 03:30N 39°27' W 075°59'0 0.0
2018-Feb-18 03:00N 39°27' W 075°59'0 0.0
2018-Feb-18 02:30N 39°27' W 075°59'0 0.0
2018-Feb-18 02:00N 39°27' W 075°59'0 0.0
2018-Feb-18 01:31N 39°27' W 075°59'0 0.0
2018-Feb-18 01:00N 39°27' W 075°59'0 0.0
2018-Feb-18 00:30N 39°27' W 075°59'0 0.0
2018-Feb-18 00:00N 39°27' W 075°59'0 0.0
2018-Feb-17 23:02N 39°27' W 075°59'0 0.0
2018-Feb-17 23:00N 39°27' W 075°59'0 0.0
2018-Feb-17 22:31N 39°27' W 075°59'0 0.0
2018-Feb-17 22:00N 39°27' W 075°59'0 0.2
2018-Feb-17 21:30N 39°27' W 075°59'0 0.2
2018-Feb-17 21:00N 39°27' W 075°59'0 0.1
2018-Feb-17 19:30N 39°27' W 075°60'0 0.7
2018-Feb-17 19:00N 39°27' W 075°59'0 0.5
2018-Feb-17 18:30N 39°27' W 075°59'0 0.4
2018-Feb-17 18:00N 39°27' W 075°59'0 0.2
2018-Feb-17 17:30N 39°27' W 075°59'0 0.5
2018-Feb-17 16:59N 39°27' W 075°59'0 0.0
2018-Feb-17 16:30N 39°27' W 075°59'0 0.0
2018-Feb-17 16:00N 39°27' W 075°59'0 0.3
2018-Feb-17 15:31N 39°27' W 075°59'0 0.1
2018-Feb-17 14:49N 39°27' W 075°59'0 0.0
2018-Feb-17 14:27N 39°27' W 075°59'0 0.0
2018-Feb-17 13:50N 39°27' W 075°59'0 0.0
2018-Feb-17 13:22N 39°27' W 075°59'0 0.8
2018-Feb-17 13:00N 39°27' W 075°60'0 0.0
2018-Feb-17 12:30N 39°27' W 075°60'0 0.6
2018-Feb-17 12:00N 39°27' W 075°59'10 2.2
2018-Feb-17 07:28N 39°32' W 075°48'510.2
2018-Feb-17 06:59N 39°33' W 075°42'511.2
2018-Feb-17 06:30N 39°33' W 075°35'4 7.3
2018-Feb-17 06:00N 39°37' W 075°35'5 9.0
2018-Feb-17 05:30N 39°41' W 075°31'4 8.9
2018-Feb-17 05:00N 39°45' W 075°29'4 8.2
2018-Feb-17 04:29N 39°48' W 075°26'12 1.3
2018-Feb-16 18:54N 39°54' W 075°11'0 0.0
2018-Feb-16 18:31N 39°54' W 075°12'0 0.0
2018-Feb-16 18:01N 39°54' W 075°12'2 3.4
2018-Feb-16 17:30N 39°53' W 075°09'3 5.0
2018-Feb-16 17:00N 39°55' W 075°07'0 0.5
2018-Feb-16 16:31N 39°55' W 075°08'0 0.4
2018-Feb-16 16:01N 39°55' W 075°08'0 0.0
2018-Feb-16 15:31N 39°55' W 075°08'1 2.5
2018-Feb-16 15:00N 39°54' W 075°08'3 5.8
2018-Feb-16 14:30N 39°53' W 075°12'1 1.7
2018-Feb-16 14:01N 39°54' W 075°12'1 2.7
2018-Feb-16 13:31N 39°53' W 075°11'1 3.0
2018-Feb-16 13:00N 39°53' W 075°09'2 3.4
2018-Feb-16 12:30N 39°53' W 075°11'1 2.2
2018-Feb-16 12:01N 39°54' W 075°12'0 0.1
2018-Feb-16 11:30N 39°54' W 075°12'1 1.3
2018-Feb-16 11:00N 39°54' W 075°12'0 0.2
2018-Feb-16 10:31N 39°54' W 075°12'0 0.0
2018-Feb-16 10:00N 39°54' W 075°12'0 0.0
2018-Feb-16 09:30N 39°54' W 075°12'0 0.0
2018-Feb-16 09:00N 39°54' W 075°12'0 0.0
2018-Feb-16 08:30N 39°54' W 075°12'0 0.0
2018-Feb-16 08:00N 39°54' W 075°12'0 0.0
2018-Feb-16 07:30N 39°54' W 075°12'0 0.0
2018-Feb-16 07:00N 39°54' W 075°12'0 0.0
2018-Feb-16 06:30N 39°54' W 075°12'0 0.0
2018-Feb-16 06:00N 39°54' W 075°12'0 0.0
2018-Feb-16 05:30N 39°54' W 075°12'0 0.0
2018-Feb-16 05:00N 39°54' W 075°12'0 0.0
2018-Feb-16 04:30N 39°54' W 075°12'0 0.0
2018-Feb-16 04:00N 39°54' W 075°12'0 0.0
2018-Feb-16 03:30N 39°54' W 075°12'0 0.0
2018-Feb-16 03:00N 39°54' W 075°12'0 0.0
2018-Feb-16 02:30N 39°54' W 075°12'0 0.0
2018-Feb-16 02:00N 39°54' W 075°12'0 0.0
2018-Feb-16 01:30N 39°54' W 075°12'0 0.0
2018-Feb-15 23:06N 39°54' W 075°12'0 0.0
2018-Feb-15 23:00N 39°54' W 075°12'0 0.0
2018-Feb-15 22:30N 39°54' W 075°12'0 0.0
2018-Feb-15 22:00N 39°54' W 075°12'0 0.0
2018-Feb-15 21:29N 39°54' W 075°12'0 0.0
2018-Feb-15 21:00N 39°54' W 075°12'0 0.0
2018-Feb-15 20:30N 39°54' W 075°12'0 0.0
2018-Feb-15 20:00N 39°54' W 075°12'0 0.0
2018-Feb-15 19:30N 39°54' W 075°12'0 0.0
2018-Feb-15 19:01N 39°54' W 075°12'0 0.0
2018-Feb-15 18:31N 39°54' W 075°12'0 0.0
2018-Feb-15 18:00N 39°54' W 075°12'0 0.0
2018-Feb-15 17:31N 39°54' W 075°12'0 0.0
2018-Feb-15 17:00N 39°54' W 075°12'0 0.0
2018-Feb-15 16:30N 39°54' W 075°12'0 0.0
2018-Feb-15 16:00N 39°54' W 075°12'0 0.0
2018-Feb-15 15:30N 39°54' W 075°12'0 0.0
2018-Feb-15 15:01N 39°54' W 075°12'0 0.0
2018-Feb-15 14:30N 39°54' W 075°12'0 0.0
2018-Feb-15 14:01N 39°54' W 075°12'0 0.0
2018-Feb-15 13:30N 39°54' W 075°12'0 0.0
2018-Feb-15 13:00N 39°54' W 075°12'0 0.0
2018-Feb-15 12:30N 39°54' W 075°12'0 0.0
2018-Feb-15 12:01N 39°54' W 075°12'0 0.0
2018-Feb-15 11:29N 39°54' W 075°12'0 0.0
2018-Feb-15 11:01N 39°54' W 075°12'0 0.0
2018-Feb-15 10:31N 39°54' W 075°12'0 0.0
2018-Feb-15 10:00N 39°54' W 075°12'0 0.0
2018-Feb-15 09:31N 39°54' W 075°12'0 0.0
2018-Feb-15 09:01N 39°54' W 075°12'0 0.0
2018-Feb-15 08:30N 39°54' W 075°12'0 0.0
2018-Feb-15 08:00N 39°54' W 075°12'0 0.0
2018-Feb-15 07:30N 39°54' W 075°12'0 0.0
2018-Feb-15 07:00N 39°54' W 075°12'0 0.0
2018-Feb-15 06:30N 39°54' W 075°12'0 0.0
2018-Feb-15 06:00N 39°54' W 075°12'0 0.0
2018-Feb-15 05:31N 39°54' W 075°12'0 0.0
2018-Feb-15 05:00N 39°54' W 075°12'0 0.0
2018-Feb-15 04:30N 39°54' W 075°12'0 0.0
2018-Feb-15 04:00N 39°54' W 075°12'0 0.0
2018-Feb-15 03:30N 39°54' W 075°12'0 0.0
2018-Feb-15 03:00N 39°54' W 075°12'0 0.0
2018-Feb-15 02:30N 39°54' W 075°12'0 0.0
2018-Feb-15 02:01N 39°54' W 075°12'0 0.0
2018-Feb-15 01:30N 39°54' W 075°12'0 0.0
2018-Feb-15 01:00N 39°54' W 075°12'0 0.0
2018-Feb-15 00:31N 39°54' W 075°12'0 0.0
2018-Feb-15 00:00N 39°54' W 075°12'0 0.0
2018-Feb-14 23:30N 39°54' W 075°12'0 0.0
2018-Feb-14 23:00N 39°54' W 075°12'0 0.0
2018-Feb-14 22:31N 39°54' W 075°12'0 0.0
2018-Feb-14 22:00N 39°54' W 075°12'0 0.0
2018-Feb-14 21:31N 39°54' W 075°12'0 0.0
2018-Feb-14 21:01N 39°54' W 075°12'0 0.0
2018-Feb-14 20:30N 39°54' W 075°12'0 0.0
2018-Feb-14 20:00N 39°54' W 075°12'0 0.0
2018-Feb-14 19:30N 39°54' W 075°12'0 0.0
2018-Feb-14 19:00N 39°54' W 075°12'0 0.2
2018-Feb-14 18:30N 39°53' W 075°12'0 0.2
2018-Feb-14 18:01N 39°54' W 075°12'0 0.0
2018-Feb-14 17:30N 39°54' W 075°12'0 0.0
2018-Feb-14 17:00N 39°54' W 075°12'0 0.0
2018-Feb-14 16:30N 39°54' W 075°12'0 0.0
2018-Feb-14 16:01N 39°54' W 075°12'0 0.0
2018-Feb-14 15:31N 39°54' W 075°12'0 0.0
2018-Feb-14 15:01N 39°54' W 075°12'0 0.0
2018-Feb-14 14:31N 39°54' W 075°12'0 0.0
2018-Feb-14 14:01N 39°54' W 075°12'0 0.0
2018-Feb-14 13:30N 39°54' W 075°12'0 0.0
2018-Feb-14 13:01N 39°54' W 075°12'0 0.0
2018-Feb-14 12:28N 39°54' W 075°12'0 0.0
2018-Feb-14 12:01N 39°54' W 075°12'0 0.0
2018-Feb-14 11:30N 39°54' W 075°12'0 0.0
2018-Feb-14 11:00N 39°54' W 075°12'0 0.0
2018-Feb-14 10:31N 39°54' W 075°12'0 0.0
2018-Feb-14 10:00N 39°54' W 075°12'0 0.0
2018-Feb-14 09:30N 39°54' W 075°12'0 0.0
2018-Feb-14 09:00N 39°54' W 075°12'0 0.0
2018-Feb-14 08:30N 39°54' W 075°12'0 0.0
2018-Feb-14 08:00N 39°54' W 075°12'0 0.0
2018-Feb-14 07:30N 39°54' W 075°12'0 0.0
2018-Feb-14 07:00N 39°54' W 075°12'0 0.0
2018-Feb-14 06:30N 39°54' W 075°12'0 0.0
2018-Feb-14 06:00N 39°54' W 075°12'2 3.9
2018-Feb-14 05:30N 39°52' W 075°13'5 9.6
2018-Feb-14 05:01N 39°51' W 075°19'4 8.9
2018-Feb-14 04:30N 39°49' W 075°24'1 1.9
2018-Feb-14 04:00N 39°48' W 075°25'0 0.0
2018-Feb-14 03:30N 39°48' W 075°25'1 1.8
2018-Feb-14 03:01N 39°48' W 075°26'4 8.3
2018-Feb-14 02:30N 39°45' W 075°30'4 8.9
2018-Feb-14 02:01N 39°41' W 075°31'4 8.7
2018-Feb-14 01:31N 39°37' W 075°35'3 6.8
2018-Feb-14 01:01N 39°34' W 075°34'4 8.8
2018-Feb-14 00:30N 39°33' W 075°39'4 8.8
2018-Feb-14 00:00N 39°32' W 075°45'4 7.8
2018-Feb-13 23:30N 39°32' W 075°50'5 9.2
2018-Feb-13 23:00N 39°30' W 075°56'5 9.4
2018-Feb-13 22:30N 39°27' W 075°60'4 8.8
2018-Feb-13 22:00N 39°24' W 076°04'5 9.5
2018-Feb-13 21:31N 39°21' W 076°09'10 8.7
2018-Feb-13 20:19N 39°12' W 076°16'3 9.0
2018-Feb-13 20:00N 39°10' W 076°18'4 7.3
2018-Feb-13 19:30N 39°10' W 076°23'4 8.5
2018-Feb-13 19:00N 39°11' W 076°28'4 8.3
2018-Feb-13 18:30N 39°13' W 076°32'2 4.8
2018-Feb-13 18:00N 39°15' W 076°34'0 0.0
2018-Feb-13 17:30N 39°15' W 076°34'0 0.8
2018-Feb-13 17:00N 39°16' W 076°33'0 0.0
2018-Feb-13 16:29N 39°16' W 076°33'0 0.0
2018-Feb-13 15:57N 39°16' W 076°33'0 0.0
2018-Feb-13 15:30N 39°16' W 076°33'0 0.0
2018-Feb-13 15:00N 39°16' W 076°33'0 0.0
2018-Feb-13 14:30N 39°16' W 076°33'0 0.0
2018-Feb-13 14:00N 39°16' W 076°33'0 0.0
2018-Feb-13 13:30N 39°16' W 076°33'0 0.0
2018-Feb-13 13:00N 39°15' W 076°33'0 0.0
2018-Feb-13 12:30N 39°16' W 076°33'0 0.8
2018-Feb-13 12:00N 39°15' W 076°34'0 0.0
2018-Feb-13 11:30N 39°15' W 076°34'0 0.0
2018-Feb-13 11:00N 39°15' W 076°34'1 1.1
2018-Feb-13 10:30N 39°15' W 076°34'2 3.0
2018-Feb-13 10:00N 39°14' W 076°33'2 3.7
2018-Feb-13 09:30N 39°12' W 076°31'2 4.1
2018-Feb-13 09:00N 39°11' W 076°28'2 4.1
2018-Feb-13 08:30N 39°11' W 076°26'2 3.9
2018-Feb-13 08:00N 39°10' W 076°24'2 3.4
2018-Feb-13 07:30N 39°09' W 076°22'3 5.7
2018-Feb-13 06:59N 39°10' W 076°18'4 8.4
2018-Feb-13 06:30N 39°13' W 076°15'4 8.8
2018-Feb-13 06:00N 39°18' W 076°14'4 8.9
2018-Feb-13 05:31N 39°21' W 076°10'5 9.2
2018-Feb-13 05:01N 39°23' W 076°05'4 8.8
2018-Feb-13 04:31N 39°26' W 076°00'4 9.0
2018-Feb-13 04:01N 39°29' W 075°56'4 8.3
2018-Feb-13 03:31N 39°32' W 075°52'4 8.0
2018-Feb-13 03:00N 39°32' W 075°47'5 9.5
2018-Feb-13 02:30N 39°33' W 075°41'4 8.8
2018-Feb-13 02:00N 39°33' W 075°35'2 4.8
2018-Feb-13 01:30N 39°36' W 075°34'3 6.4
2018-Feb-13 01:00N 39°39' W 075°33'3 5.6
2018-Feb-13 00:31N 39°41' W 075°31'4 7.1
2018-Feb-13 00:01N 39°45' W 075°30'4 8.0
2018-Feb-12 23:30N 39°48' W 075°26'1 2.4
2018-Feb-12 23:00N 39°48' W 075°25'0 0.0
2018-Feb-12 22:31N 39°48' W 075°25'0 0.0
2018-Feb-12 22:00N 39°48' W 075°25'1 2.2
2018-Feb-12 21:30N 39°49' W 075°24'4 8.6
2018-Feb-12 21:00N 39°51' W 075°19'4 8.4
2018-Feb-12 20:31N 39°52' W 075°14'3 5.3
2018-Feb-12 20:00N 39°54' W 075°12'0 0.0
2018-Feb-12 19:31N 39°54' W 075°12'0 0.0
2018-Feb-12 19:00N 39°54' W 075°12'0 0.0
2018-Feb-12 18:31N 39°54' W 075°12'0 0.0
2018-Feb-12 18:01N 39°54' W 075°12'0 0.0
2018-Feb-12 17:30N 39°54' W 075°12'0 0.0
2018-Feb-12 17:00N 39°54' W 075°12'0 0.0
2018-Feb-12 16:30N 39°54' W 075°12'0 0.0
2018-Feb-12 16:00N 39°54' W 075°12'0 0.0
2018-Feb-12 15:31N 39°54' W 075°12'0 0.0
2018-Feb-12 15:00N 39°54' W 075°12'0 0.0
2018-Feb-12 14:31N 39°54' W 075°12'0 0.0
2018-Feb-12 14:00N 39°54' W 075°12'0 0.0
2018-Feb-12 13:31N 39°54' W 075°12'0 0.0
2018-Feb-12 13:01N 39°54' W 075°11'  
Track history (hours):
 
Tides and Currents Weather Stations Pressure Air Temp Water Temp Dewpoint Dewpoint Depression Visibility Wind Speed Wind Dir Waves Ship Positions

Discovery Coast

Owner: Dann Marine Towing, LC, Chesapeake City, MD. More information available from US FCC via Universal Licensing System.

Last reported at 2018-Feb-22 13:00 UTC. Time now 2018-Feb-22 13:10 UTC.
Position N 38°53' W 076°25'.

Length 31 m; draft 4.3 m.

Type: Tug. MMSI: 367515850.

Date/timePositionNaut miles runAvg speedWind from/ knotsBaromVisibWave heightAir tempDewpointWater temp
2018-Feb-22 13:00N 38°53' W 076°25'5 9.7
2018-Feb-22 12:30N 38°48' W 076°27'88 9.5
2018-Feb-22 03:14N 37°21' W 076°10'3 9.0
2018-Feb-22 02:57N 37°18' W 076°10'5 9.1
2018-Feb-22 02:26N 37°14' W 076°10'5 9.0
2018-Feb-22 01:56N 37°09' W 076°10'4 8.7
2018-Feb-22 01:26N 37°05' W 076°11'4 8.7
2018-Feb-22 00:56N 37°01' W 076°11'611.4
2018-Feb-22 00:26N 36°60' W 076°18'4 8.9
2018-Feb-21 23:58N 36°56' W 076°20'0 0.0
2018-Feb-21 23:26N 36°56' W 076°20'0 0.0
2018-Feb-21 23:00N 36°56' W 076°20'0 0.0
2018-Feb-21 22:30N 36°56' W 076°20'0 0.0
2018-Feb-21 22:00N 36°56' W 076°20'0 0.6
2018-Feb-21 21:29N 36°56' W 076°20'0 0.3
2018-Feb-21 20:54N 36°56' W 076°20'0 0.0
2018-Feb-21 20:29N 36°56' W 076°20'0 0.0
2018-Feb-21 19:58N 36°56' W 076°20'0 0.0
2018-Feb-21 19:28N 36°56' W 076°20'0 0.0
2018-Feb-21 19:00N 36°56' W 076°20'3 6.2
2018-Feb-21 18:30N 36°53' W 076°20'3 6.8
2018-Feb-21 18:00N 36°50' W 076°17'0 0.4
2018-Feb-21 17:30N 36°50' W 076°17'0 0.0
2018-Feb-21 17:00N 36°50' W 076°17'0 0.0
2018-Feb-21 16:30N 36°50' W 076°17'0 0.0
2018-Feb-21 16:00N 36°50' W 076°17'0 0.0
2018-Feb-21 15:30N 36°50' W 076°17'0 0.0
2018-Feb-21 15:00N 36°50' W 076°17'0 0.0
2018-Feb-21 14:30N 36°50' W 076°17'0 0.0
2018-Feb-21 14:00N 36°50' W 076°17'0 0.0
2018-Feb-21 13:30N 36°50' W 076°17'0 0.0
2018-Feb-21 13:00N 36°50' W 076°17'0 0.0
2018-Feb-21 12:30N 36°50' W 076°17'0 0.0
2018-Feb-21 12:00N 36°50' W 076°17'0 0.0
2018-Feb-21 11:30N 36°50' W 076°17'0 0.0
2018-Feb-21 10:53N 36°50' W 076°17'0 0.0
2018-Feb-21 10:27N 36°50' W 076°17'0 0.0
2018-Feb-21 10:00N 36°50' W 076°17'0 0.0
2018-Feb-21 09:19N 36°50' W 076°17'0 0.0
2018-Feb-21 08:57N 36°50' W 076°17'0 0.0
2018-Feb-21 08:30N 36°50' W 076°17'0 0.0
2018-Feb-21 08:00N 36°50' W 076°17'0 0.0
2018-Feb-21 07:30N 36°50' W 076°17'0 0.0
2018-Feb-21 07:00N 36°50' W 076°17'0 0.0
2018-Feb-21 06:30N 36°50' W 076°17'0 0.0
2018-Feb-21 06:00N 36°50' W 076°17'0 0.0
2018-Feb-21 05:30N 36°50' W 076°17'0 0.0
2018-Feb-21 05:00N 36°50' W 076°17'0 0.0
2018-Feb-21 04:30N 36°50' W 076°17'0 0.0
2018-Feb-21 04:00N 36°50' W 076°17'0 0.0
2018-Feb-21 03:30N 36°50' W 076°17'1 1.1
2018-Feb-21 03:00N 36°50' W 076°16'0 0.0
2018-Feb-21 02:30N 36°50' W 076°16'2 4.9
2018-Feb-21 02:00N 36°51' W 076°19'6 9.8
2018-Feb-21 01:26N 36°57' W 076°20'4 8.8
2018-Feb-21 00:56N 37°00' W 076°17'5 8.6
2018-Feb-21 00:24N 37°01' W 076°11'410.3
2018-Feb-21 00:00N 37°05' W 076°10'95 9.9
2018-Feb-20 14:26N 38°39' W 076°28'4 9.5
2018-Feb-20 14:00N 38°43' W 076°28'5 9.4
2018-Feb-20 13:30N 38°47' W 076°27'5 9.3
2018-Feb-20 13:00N 38°52' W 076°25'5 9.2
2018-Feb-20 12:30N 38°56' W 076°24'4 8.2
2018-Feb-20 12:00N 39°00' W 076°23'4 8.1
2018-Feb-20 11:30N 39°04' W 076°21'4 8.6
2018-Feb-20 10:59N 39°08' W 076°19'4 8.4
2018-Feb-20 10:30N 39°12' W 076°16'4 8.2
2018-Feb-20 10:01N 39°15' W 076°14'3 6.4
2018-Feb-20 09:31N 39°18' W 076°13'3 5.9
2018-Feb-20 09:01N 39°21' W 076°11'3 6.3
2018-Feb-20 08:31N 39°22' W 076°07'3 6.4
2018-Feb-20 08:00N 39°24' W 076°04'3 6.5
2018-Feb-20 07:30N 39°26' W 076°01'1 2.9
2018-Feb-20 07:01N 39°27' W 075°59'0 0.0
2018-Feb-20 06:30N 39°27' W 075°59'0 0.0
2018-Feb-20 06:01N 39°27' W 075°59'0 0.0
2018-Feb-20 05:30N 39°27' W 075°59'0 0.0
2018-Feb-20 05:00N 39°27' W 075°59'1 1.9
2018-Feb-20 04:30N 39°26' W 076°00'5 9.8
2018-Feb-20 04:00N 39°23' W 076°05'510.2
2018-Feb-20 03:30N 39°21' W 076°11'5 9.8
2018-Feb-20 03:00N 39°16' W 076°14'5 9.5
2018-Feb-20 02:30N 39°12' W 076°16'5 9.8
2018-Feb-20 01:59N 39°08' W 076°20'5 9.7
2018-Feb-20 01:30N 39°03' W 076°21'510.2
2018-Feb-20 01:00N 38°58' W 076°23'5 9.5
2018-Feb-20 00:30N 38°54' W 076°25'5 9.9
2018-Feb-20 00:00N 38°49' W 076°27'5 9.8
2018-Feb-19 23:30N 38°44' W 076°28'89 9.6
2018-Feb-19 14:16N 37°17' W 076°10'2 9.2
2018-Feb-19 14:00N 37°14' W 076°10'5 9.0
2018-Feb-19 13:30N 37°10' W 076°10'5 8.9
2018-Feb-19 12:58N 37°05' W 076°10'5 8.3
2018-Feb-19 12:21N 37°00' W 076°12'4 9.6
2018-Feb-19 11:56N 37°00' W 076°17'4 9.3
2018-Feb-19 11:31N 36°57' W 076°20'5 9.0
2018-Feb-19 11:00N 36°53' W 076°20'4 7.4
2018-Feb-19 10:30N 36°50' W 076°16'0 0.3
2018-Feb-19 10:00N 36°50' W 076°16'0 0.1
2018-Feb-19 09:30N 36°50' W 076°16'1 2.6
2018-Feb-19 09:00N 36°51' W 076°18'2 3.9
2018-Feb-19 08:30N 36°52' W 076°19'3 6.1
2018-Feb-19 08:00N 36°55' W 076°20'4 6.5
2018-Feb-19 07:25N 36°59' W 076°20'3 5.7
2018-Feb-19 06:57N 37°00' W 076°17'3 6.4
2018-Feb-19 06:26N 37°00' W 076°13'3 6.2
2018-Feb-19 05:57N 37°03' W 076°10'5 7.6
2018-Feb-19 05:21N 37°07' W 076°10'6 7.4
2018-Feb-19 04:34N 37°13' W 076°10'88 9.1
2018-Feb-18 18:52N 38°40' W 076°28'410.5
2018-Feb-18 18:30N 38°44' W 076°28'510.6
2018-Feb-18 18:00N 38°49' W 076°26'510.9
2018-Feb-18 17:30N 38°54' W 076°25'611.0
2018-Feb-18 17:00N 38°59' W 076°23'611.0
2018-Feb-18 16:30N 39°04' W 076°20'510.2
2018-Feb-18 16:00N 39°09' W 076°19'510.3
2018-Feb-18 15:28N 39°14' W 076°15'5 9.7
2018-Feb-18 15:00N 39°18' W 076°13'5 9.2
2018-Feb-18 14:30N 39°21' W 076°09'5 9.4
2018-Feb-18 14:01N 39°24' W 076°04'5 9.0
2018-Feb-18 13:30N 39°27' W 075°60'0 0.9
2018-Feb-18 13:00N 39°27' W 075°59'0 0.0
2018-Feb-18 12:30N 39°27' W 075°59'0 0.4
2018-Feb-18 12:00N 39°27' W 075°59'0 0.0
2018-Feb-18 11:31N 39°27' W 075°59'0 0.0
2018-Feb-18 11:00N 39°27' W 075°59'0 0.0
2018-Feb-18 10:30N 39°27' W 075°59'0 0.0
2018-Feb-18 10:00N 39°27' W 075°59'0 0.0
2018-Feb-18 09:30N 39°27' W 075°59'0 0.0
2018-Feb-18 09:00N 39°27' W 075°59'0 0.0
2018-Feb-18 08:30N 39°27' W 075°59'0 0.0
2018-Feb-18 08:00N 39°27' W 075°59'0 0.0
2018-Feb-18 07:30N 39°27' W 075°59'0 0.0
2018-Feb-18 07:00N 39°27' W 075°59'0 0.0
2018-Feb-18 06:31N 39°27' W 075°59'0 0.0
2018-Feb-18 06:00N 39°27' W 075°59'0 0.0
2018-Feb-18 05:30N 39°27' W 075°59'0 0.0
2018-Feb-18 05:01N 39°27' W 075°59'0 0.0
2018-Feb-18 04:30N 39°27' W 075°59'0 0.0
2018-Feb-18 04:00N 39°27' W 075°59'0 0.0
2018-Feb-18 03:30N 39°27' W 075°59'0 0.0
2018-Feb-18 03:00N 39°27' W 075°59'0 0.0
2018-Feb-18 02:30N 39°27' W 075°59'0 0.0
2018-Feb-18 02:00N 39°27' W 075°59'0 0.0
2018-Feb-18 01:31N 39°27' W 075°59'0 0.0
2018-Feb-18 01:00N 39°27' W 075°59'0 0.0
2018-Feb-18 00:30N 39°27' W 075°59'0 0.0
2018-Feb-18 00:00N 39°27' W 075°59'0 0.0
2018-Feb-17 23:02N 39°27' W 075°59'0 0.0
2018-Feb-17 23:00N 39°27' W 075°59'0 0.0
2018-Feb-17 22:31N 39°27' W 075°59'0 0.0
2018-Feb-17 22:00N 39°27' W 075°59'0 0.2
2018-Feb-17 21:30N 39°27' W 075°59'0 0.2
2018-Feb-17 21:00N 39°27' W 075°59'0 0.1
2018-Feb-17 19:30N 39°27' W 075°60'0 0.7
2018-Feb-17 19:00N 39°27' W 075°59'0 0.5
2018-Feb-17 18:30N 39°27' W 075°59'0 0.4
2018-Feb-17 18:00N 39°27' W 075°59'0 0.2
2018-Feb-17 17:30N 39°27' W 075°59'0 0.5
2018-Feb-17 16:59N 39°27' W 075°59'0 0.0
2018-Feb-17 16:30N 39°27' W 075°59'0 0.0
2018-Feb-17 16:00N 39°27' W 075°59'0 0.3
2018-Feb-17 15:31N 39°27' W 075°59'0 0.1
2018-Feb-17 14:49N 39°27' W 075°59'0 0.0
2018-Feb-17 14:27N 39°27' W 075°59'0 0.0
2018-Feb-17 13:50N 39°27' W 075°59'0 0.0
2018-Feb-17 13:22N 39°27' W 075°59'0 0.8
2018-Feb-17 13:00N 39°27' W 075°60'0 0.0
2018-Feb-17 12:30N 39°27' W 075°60'0 0.6
2018-Feb-17 12:00N 39°27' W 075°59'10 2.2
2018-Feb-17 07:28N 39°32' W 075°48'510.2
2018-Feb-17 06:59N 39°33' W 075°42'511.2
2018-Feb-17 06:30N 39°33' W 075°35'4 7.3
2018-Feb-17 06:00N 39°37' W 075°35'5 9.0
2018-Feb-17 05:30N 39°41' W 075°31'4 8.9
2018-Feb-17 05:00N 39°45' W 075°29'4 8.2
2018-Feb-17 04:29N 39°48' W 075°26'12 1.3
2018-Feb-16 18:54N 39°54' W 075°11'0 0.0
2018-Feb-16 18:31N 39°54' W 075°12'0 0.0
2018-Feb-16 18:01N 39°54' W 075°12'2 3.4
2018-Feb-16 17:30N 39°53' W 075°09'3 5.0
2018-Feb-16 17:00N 39°55' W 075°07'0 0.5
2018-Feb-16 16:31N 39°55' W 075°08'0 0.4
2018-Feb-16 16:01N 39°55' W 075°08'0 0.0
2018-Feb-16 15:31N 39°55' W 075°08'1 2.5
2018-Feb-16 15:00N 39°54' W 075°08'3 5.8
2018-Feb-16 14:30N 39°53' W 075°12'1 1.7
2018-Feb-16 14:01N 39°54' W 075°12'1 2.7
2018-Feb-16 13:31N 39°53' W 075°11'1 3.0
2018-Feb-16 13:00N 39°53' W 075°09'2 3.4
2018-Feb-16 12:30N 39°53' W 075°11'1 2.2
2018-Feb-16 12:01N 39°54' W 075°12'0 0.1
2018-Feb-16 11:30N 39°54' W 075°12'1 1.3
2018-Feb-16 11:00N 39°54' W 075°12'0 0.2
2018-Feb-16 10:31N 39°54' W 075°12'0 0.0
2018-Feb-16 10:00N 39°54' W 075°12'0 0.0
2018-Feb-16 09:30N 39°54' W 075°12'0 0.0
2018-Feb-16 09:00N 39°54' W 075°12'0 0.0
2018-Feb-16 08:30N 39°54' W 075°12'0 0.0
2018-Feb-16 08:00N 39°54' W 075°12'0 0.0
2018-Feb-16 07:30N 39°54' W 075°12'0 0.0
2018-Feb-16 07:00N 39°54' W 075°12'0 0.0
2018-Feb-16 06:30N 39°54' W 075°12'0 0.0
2018-Feb-16 06:00N 39°54' W 075°12'0 0.0
2018-Feb-16 05:30N 39°54' W 075°12'0 0.0
2018-Feb-16 05:00N 39°54' W 075°12'0 0.0
2018-Feb-16 04:30N 39°54' W 075°12'0 0.0
2018-Feb-16 04:00N 39°54' W 075°12'0 0.0
2018-Feb-16 03:30N 39°54' W 075°12'0 0.0
2018-Feb-16 03:00N 39°54' W 075°12'0 0.0
2018-Feb-16 02:30N 39°54' W 075°12'0 0.0
2018-Feb-16 02:00N 39°54' W 075°12'0 0.0
2018-Feb-16 01:30N 39°54' W 075°12'0 0.0
2018-Feb-15 23:06N 39°54' W 075°12'0 0.0
2018-Feb-15 23:00N 39°54' W 075°12'0 0.0
2018-Feb-15 22:30N 39°54' W 075°12'0 0.0
2018-Feb-15 22:00N 39°54' W 075°12'0 0.0
2018-Feb-15 21:29N 39°54' W 075°12'0 0.0
2018-Feb-15 21:00N 39°54' W 075°12'0 0.0
2018-Feb-15 20:30N 39°54' W 075°12'0 0.0
2018-Feb-15 20:00N 39°54' W 075°12'0 0.0
2018-Feb-15 19:30N 39°54' W 075°12'0 0.0
2018-Feb-15 19:01N 39°54' W 075°12'0 0.0
2018-Feb-15 18:31N 39°54' W 075°12'0 0.0
2018-Feb-15 18:00N 39°54' W 075°12'0 0.0
2018-Feb-15 17:31N 39°54' W 075°12'0 0.0
2018-Feb-15 17:00N 39°54' W 075°12'0 0.0
2018-Feb-15 16:30N 39°54' W 075°12'0 0.0
2018-Feb-15 16:00N 39°54' W 075°12'0 0.0
2018-Feb-15 15:30N 39°54' W 075°12'0 0.0
2018-Feb-15 15:01N 39°54' W 075°12'0 0.0
2018-Feb-15 14:30N 39°54' W 075°12'0 0.0
2018-Feb-15 14:01N 39°54' W 075°12'0 0.0
2018-Feb-15 13:30N 39°54' W 075°12'0 0.0
2018-Feb-15 13:00N 39°54' W 075°12'0 0.0
2018-Feb-15 12:30N 39°54' W 075°12'0 0.0
2018-Feb-15 12:01N 39°54' W 075°12'0 0.0
2018-Feb-15 11:29N 39°54' W 075°12'0 0.0
2018-Feb-15 11:01N 39°54' W 075°12'0 0.0
2018-Feb-15 10:31N 39°54' W 075°12'0 0.0
2018-Feb-15 10:00N 39°54' W 075°12'0 0.0
2018-Feb-15 09:31N 39°54' W 075°12'0 0.0
2018-Feb-15 09:01N 39°54' W 075°12'0 0.0
2018-Feb-15 08:30N 39°54' W 075°12'0 0.0
2018-Feb-15 08:00N 39°54' W 075°12'0 0.0
2018-Feb-15 07:30N 39°54' W 075°12'0 0.0
2018-Feb-15 07:00N 39°54' W 075°12'0 0.0
2018-Feb-15 06:30N 39°54' W 075°12'0 0.0
2018-Feb-15 06:00N 39°54' W 075°12'0 0.0
2018-Feb-15 05:31N 39°54' W 075°12'0 0.0
2018-Feb-15 05:00N 39°54' W 075°12'0 0.0
2018-Feb-15 04:30N 39°54' W 075°12'0 0.0
2018-Feb-15 04:00N 39°54' W 075°12'0 0.0
2018-Feb-15 03:30N 39°54' W 075°12'0 0.0
2018-Feb-15 03:00N 39°54' W 075°12'0 0.0
2018-Feb-15 02:30N 39°54' W 075°12'0 0.0
2018-Feb-15 02:01N 39°54' W 075°12'0 0.0
2018-Feb-15 01:30N 39°54' W 075°12'0 0.0
2018-Feb-15 01:00N 39°54' W 075°12'0 0.0
2018-Feb-15 00:31N 39°54' W 075°12'0 0.0
2018-Feb-15 00:00N 39°54' W 075°12'0 0.0
2018-Feb-14 23:30N 39°54' W 075°12'0 0.0
2018-Feb-14 23:00N 39°54' W 075°12'0 0.0
2018-Feb-14 22:31N 39°54' W 075°12'0 0.0
2018-Feb-14 22:00N 39°54' W 075°12'0 0.0
2018-Feb-14 21:31N 39°54' W 075°12'0 0.0
2018-Feb-14 21:01N 39°54' W 075°12'0 0.0
2018-Feb-14 20:30N 39°54' W 075°12'0 0.0
2018-Feb-14 20:00N 39°54' W 075°12'0 0.0
2018-Feb-14 19:30N 39°54' W 075°12'0 0.0
2018-Feb-14 19:00N 39°54' W 075°12'0 0.2
2018-Feb-14 18:30N 39°53' W 075°12'0 0.2
2018-Feb-14 18:01N 39°54' W 075°12'0 0.0
2018-Feb-14 17:30N 39°54' W 075°12'0 0.0
2018-Feb-14 17:00N 39°54' W 075°12'0 0.0
2018-Feb-14 16:30N 39°54' W 075°12'0 0.0
2018-Feb-14 16:01N 39°54' W 075°12'0 0.0
2018-Feb-14 15:31N 39°54' W 075°12'0 0.0
2018-Feb-14 15:01N 39°54' W 075°12'0 0.0
2018-Feb-14 14:31N 39°54' W 075°12'0 0.0
2018-Feb-14 14:01N 39°54' W 075°12'0 0.0
2018-Feb-14 13:30N 39°54' W 075°12'0 0.0
2018-Feb-14 13:01N 39°54' W 075°12'0 0.0
2018-Feb-14 12:28N 39°54' W 075°12'0 0.0
2018-Feb-14 12:01N 39°54' W 075°12'0 0.0
2018-Feb-14 11:30N 39°54' W 075°12'0 0.0
2018-Feb-14 11:00N 39°54' W 075°12'0 0.0
2018-Feb-14 10:31N 39°54' W 075°12'0 0.0
2018-Feb-14 10:00N 39°54' W 075°12'0 0.0
2018-Feb-14 09:30N 39°54' W 075°12'0 0.0
2018-Feb-14 09:00N 39°54' W 075°12'0 0.0
2018-Feb-14 08:30N 39°54' W 075°12'0 0.0
2018-Feb-14 08:00N 39°54' W 075°12'0 0.0
2018-Feb-14 07:30N 39°54' W 075°12'0 0.0
2018-Feb-14 07:00N 39°54' W 075°12'0 0.0
2018-Feb-14 06:30N 39°54' W 075°12'0 0.0
2018-Feb-14 06:00N 39°54' W 075°12'2 3.9
2018-Feb-14 05:30N 39°52' W 075°13'5 9.6
2018-Feb-14 05:01N 39°51' W 075°19'4 8.9
2018-Feb-14 04:30N 39°49' W 075°24'1 1.9
2018-Feb-14 04:00N 39°48' W 075°25'0 0.0
2018-Feb-14 03:30N 39°48' W 075°25'1 1.8
2018-Feb-14 03:01N 39°48' W 075°26'4 8.3
2018-Feb-14 02:30N 39°45' W 075°30'4 8.9
2018-Feb-14 02:01N 39°41' W 075°31'4 8.7
2018-Feb-14 01:31N 39°37' W 075°35'3 6.8
2018-Feb-14 01:01N 39°34' W 075°34'4 8.8
2018-Feb-14 00:30N 39°33' W 075°39'4 8.8
2018-Feb-14 00:00N 39°32' W 075°45'4 7.8
2018-Feb-13 23:30N 39°32' W 075°50'5 9.2
2018-Feb-13 23:00N 39°30' W 075°56'5 9.4
2018-Feb-13 22:30N 39°27' W 075°60'4 8.8
2018-Feb-13 22:00N 39°24' W 076°04'5 9.5
2018-Feb-13 21:31N 39°21' W 076°09'10 8.7
2018-Feb-13 20:19N 39°12' W 076°16'3 9.0
2018-Feb-13 20:00N 39°10' W 076°18'4 7.3
2018-Feb-13 19:30N 39°10' W 076°23'4 8.5
2018-Feb-13 19:00N 39°11' W 076°28'4 8.3
2018-Feb-13 18:30N 39°13' W 076°32'2 4.8
2018-Feb-13 18:00N 39°15' W 076°34'0 0.0
2018-Feb-13 17:30N 39°15' W 076°34'0 0.8
2018-Feb-13 17:00N 39°16' W 076°33'0 0.0
2018-Feb-13 16:29N 39°16' W 076°33'0 0.0
2018-Feb-13 15:57N 39°16' W 076°33'0 0.0
2018-Feb-13 15:30N 39°16' W 076°33'0 0.0
2018-Feb-13 15:00N 39°16' W 076°33'0 0.0
2018-Feb-13 14:30N 39°16' W 076°33'0 0.0
2018-Feb-13 14:00N 39°16' W 076°33'0 0.0
2018-Feb-13 13:30N 39°16' W 076°33'0 0.0
2018-Feb-13 13:00N 39°15' W 076°33'0 0.0
2018-Feb-13 12:30N 39°16' W 076°33'0 0.8
2018-Feb-13 12:00N 39°15' W 076°34'0 0.0
2018-Feb-13 11:30N 39°15' W 076°34'0 0.0
2018-Feb-13 11:00N 39°15' W 076°34'1 1.1
2018-Feb-13 10:30N 39°15' W 076°34'2 3.0
2018-Feb-13 10:00N 39°14' W 076°33'2 3.7
2018-Feb-13 09:30N 39°12' W 076°31'2 4.1
2018-Feb-13 09:00N 39°11' W 076°28'2 4.1
2018-Feb-13 08:30N 39°11' W 076°26'2 3.9
2018-Feb-13 08:00N 39°10' W 076°24'2 3.4
2018-Feb-13 07:30N 39°09' W 076°22'3 5.7
2018-Feb-13 06:59N 39°10' W 076°18'4 8.4
2018-Feb-13 06:30N 39°13' W 076°15'4 8.8
2018-Feb-13 06:00N 39°18' W 076°14'4 8.9
2018-Feb-13 05:31N 39°21' W 076°10'5 9.2
2018-Feb-13 05:01N 39°23' W 076°05'4 8.8
2018-Feb-13 04:31N 39°26' W 076°00'4 9.0
2018-Feb-13 04:01N 39°29' W 075°56'4 8.3
2018-Feb-13 03:31N 39°32' W 075°52'4 8.0
2018-Feb-13 03:00N 39°32' W 075°47'5 9.5
2018-Feb-13 02:30N 39°33' W 075°41'4 8.8
2018-Feb-13 02:00N 39°33' W 075°35'2 4.8
2018-Feb-13 01:30N 39°36' W 075°34'3 6.4
2018-Feb-13 01:00N 39°39' W 075°33'3 5.6
2018-Feb-13 00:31N 39°41' W 075°31'4 7.1
2018-Feb-13 00:01N 39°45' W 075°30'4 8.0
2018-Feb-12 23:30N 39°48' W 075°26'1 2.4
2018-Feb-12 23:00N 39°48' W 075°25'0 0.0
2018-Feb-12 22:31N 39°48' W 075°25'0 0.0
2018-Feb-12 22:00N 39°48' W 075°25'1 2.2
2018-Feb-12 21:30N 39°49' W 075°24'4 8.6
2018-Feb-12 21:00N 39°51' W 075°19'4 8.4
2018-Feb-12 20:31N 39°52' W 075°14'3 5.3
2018-Feb-12 20:00N 39°54' W 075°12'0 0.0
2018-Feb-12 19:31N 39°54' W 075°12'0 0.0
2018-Feb-12 19:00N 39°54' W 075°12'0 0.0
2018-Feb-12 18:31N 39°54' W 075°12'0 0.0
2018-Feb-12 18:01N 39°54' W 075°12'0 0.0
2018-Feb-12 17:30N 39°54' W 075°12'0 0.0
2018-Feb-12 17:00N 39°54' W 075°12'0 0.0
2018-Feb-12 16:30N 39°54' W 075°12'0 0.0
2018-Feb-12 16:00N 39°54' W 075°12'0 0.0
2018-Feb-12 15:31N 39°54' W 075°12'0 0.0
2018-Feb-12 15:00N 39°54' W 075°12'0 0.0
2018-Feb-12 14:31N 39°54' W 075°12'0 0.0
2018-Feb-12 14:00N 39°54' W 075°12'0 0.0
2018-Feb-12 13:31N 39°54' W 075°12'0 0.0
2018-Feb-12 13:01N 39°54' W 075°11'  

Dump ship's entire track history